createdAt,value
2022-09-23T00:00:31.741Z,35.62
2022-09-23T00:02:59.456Z,35.15
2022-09-23T00:05:26.978Z,35.12
2022-09-23T00:07:54.563Z,35.26
2022-09-23T00:10:24.204Z,35.16
2022-09-23T00:12:52.520Z,34.89
2022-09-23T00:15:19.983Z,35.16
2022-09-23T00:17:47.508Z,34.89
2022-09-23T00:20:15.050Z,35.00
2022-09-23T00:22:42.403Z,35.29
2022-09-23T00:25:10.746Z,34.97
2022-09-23T00:27:39.966Z,34.88
2022-09-23T00:30:09.859Z,35.26
2022-09-23T00:32:37.749Z,35.09
2022-09-23T00:35:05.978Z,35.23
2022-09-23T00:37:33.332Z,35.69
2022-09-23T00:40:00.690Z,35.63
2022-09-23T00:42:28.035Z,35.69
2022-09-23T00:44:59.282Z,35.46
2022-09-23T00:47:32.514Z,36.08
2022-09-23T00:50:06.991Z,35.47
2022-09-23T00:52:35.003Z,35.84
2022-09-23T00:55:07.804Z,35.62
2022-09-23T00:57:36.757Z,35.14
2022-09-23T01:00:07.795Z,35.34
2022-09-23T01:02:35.326Z,35.11
2022-09-23T01:05:05.496Z,35.84
2022-09-23T01:07:33.704Z,36.08
2022-09-23T01:10:02.111Z,35.65
2022-09-23T01:12:47.231Z,36.16
2022-09-23T01:15:20.954Z,35.57
2022-09-23T01:17:55.657Z,36.35
2022-09-23T01:20:47.040Z,36.31
2022-09-23T01:23:33.967Z,35.84
2022-09-23T01:26:13.813Z,36.01
2022-09-23T01:29:02.504Z,36.42
2022-09-23T01:31:39.023Z,36.23
2022-09-23T01:34:14.850Z,35.55
2022-09-23T01:36:47.764Z,35.74
2022-09-23T01:39:22.619Z,35.97
2022-09-23T01:42:00.489Z,36.64
2022-09-23T01:44:32.811Z,36.11
2022-09-23T01:47:07.364Z,36.48
2022-09-23T01:49:42.006Z,35.51
2022-09-23T01:52:15.047Z,36.46
2022-09-23T01:54:50.319Z,35.77
2022-09-23T01:57:23.753Z,36.00
2022-09-23T01:59:55.124Z,35.96
2022-09-23T02:02:29.290Z,36.08
2022-09-23T02:05:03.445Z,35.86
2022-09-23T02:07:38.461Z,35.76
2022-09-23T02:10:16.966Z,35.87
2022-09-23T02:12:47.349Z,35.27
2022-09-23T02:15:18.518Z,35.53
2022-09-23T02:17:51.227Z,35.67
2022-09-23T02:20:23.420Z,35.32
2022-09-23T02:22:56.836Z,35.38
2022-09-23T02:25:31.019Z,36.26
2022-09-23T02:28:05.522Z,37.20
2022-09-23T02:30:43.973Z,37.85
2022-09-23T02:33:21.217Z,37.94
2022-09-23T02:35:54.186Z,38.49
2022-09-23T02:38:29.482Z,38.37
2022-09-23T02:41:04.449Z,38.12
2022-09-23T02:43:37.019Z,38.29
2022-09-23T02:46:06.385Z,37.87
2022-09-23T02:48:40.121Z,38.15
2022-09-23T02:51:08.238Z,37.99
2022-09-23T02:53:35.628Z,37.75
2022-09-23T02:56:13.274Z,37.75
2022-09-23T02:58:40.835Z,37.84
2022-09-23T03:01:16.838Z,38.15
2022-09-23T03:03:49.368Z,37.64
2022-09-23T03:06:29.565Z,38.23
2022-09-23T03:09:02.753Z,38.69
2022-09-23T03:11:31.220Z,38.39
2022-09-23T03:14:12.615Z,38.14
2022-09-23T03:16:43.967Z,38.94
2022-09-23T03:19:27.297Z,38.54
2022-09-23T03:22:02.885Z,38.49
2022-09-23T03:24:32.283Z,38.56
2022-09-23T03:27:04.931Z,38.69
2022-09-23T03:29:33.636Z,38.23
2022-09-23T03:32:01.467Z,38.34
2022-09-23T03:34:34.600Z,38.68
2022-09-23T03:37:07.851Z,38.06
2022-09-23T03:39:38.906Z,38.41
2022-09-23T03:42:12.602Z,38.32
2022-09-23T03:44:43.303Z,38.04
2022-09-23T03:47:11.149Z,38.30
2022-09-23T03:49:41.155Z,38.17
2022-09-23T03:52:08.697Z,38.34
2022-09-23T03:54:36.019Z,38.28
2022-09-23T03:57:04.078Z,38.29
2022-09-23T03:59:31.789Z,38.48
2022-09-23T04:02:00.050Z,38.48
2022-09-23T04:04:27.784Z,38.23
2022-09-23T04:06:57.148Z,38.36
2022-09-23T04:09:24.827Z,38.29
2022-09-23T04:11:53.216Z,38.26
2022-09-23T04:14:21.822Z,37.95
2022-09-23T04:16:50.203Z,37.77
2022-09-23T04:19:18.786Z,38.47
2022-09-23T04:21:46.352Z,38.26
2022-09-23T04:24:16.587Z,37.91
2022-09-23T04:26:44.808Z,38.46
2022-09-23T04:29:12.288Z,37.64
2022-09-23T04:31:39.883Z,37.50
2022-09-23T04:34:07.515Z,37.59
2022-09-23T04:36:35.015Z,37.23
2022-09-23T04:39:03.157Z,37.72
2022-09-23T04:41:32.278Z,37.54
2022-09-23T04:43:59.770Z,37.58
2022-09-23T04:46:27.250Z,36.32
2022-09-23T04:48:55.532Z,36.81
2022-09-23T04:51:25.041Z,37.03
2022-09-23T04:53:53.912Z,36.55
2022-09-23T04:56:23.307Z,37.59
2022-09-23T04:58:53.138Z,36.73
2022-09-23T05:01:22.597Z,36.92
2022-09-23T05:03:50.512Z,36.54
2022-09-23T05:06:18.156Z,36.25
2022-09-23T05:08:48.780Z,36.53
2022-09-23T05:11:16.660Z,37.28
2022-09-23T05:13:44.074Z,36.88
2022-09-23T05:16:13.021Z,37.73
2022-09-23T05:18:41.931Z,36.89
2022-09-23T05:21:10.365Z,37.11
2022-09-23T05:23:38.110Z,36.77
2022-09-23T05:26:07.552Z,36.15
2022-09-23T05:28:35.772Z,37.18
2022-09-23T05:31:04.364Z,36.81
2022-09-23T05:33:33.910Z,36.93
2022-09-23T05:36:01.916Z,36.66
2022-09-23T05:38:29.934Z,37.03
2022-09-23T05:40:57.626Z,37.11
2022-09-23T05:43:25.485Z,36.88
2022-09-23T05:46:02.243Z,36.42
2022-09-23T05:48:31.574Z,36.56
2022-09-23T05:51:01.369Z,37.58
2022-09-23T05:53:29.848Z,37.86
2022-09-23T05:55:57.518Z,37.45
2022-09-23T05:58:25.452Z,36.95
2022-09-23T06:00:52.934Z,36.55
2022-09-23T06:03:21.781Z,36.31
2022-09-23T06:05:52.931Z,36.64
2022-09-23T06:08:22.301Z,36.75
2022-09-23T06:10:54.328Z,36.38
2022-09-23T06:13:22.061Z,36.76
2022-09-23T06:15:49.506Z,36.25
2022-09-23T06:18:16.860Z,36.14
2022-09-23T06:20:44.360Z,36.59
2022-09-23T06:23:11.905Z,36.60
2022-09-23T06:25:40.765Z,35.97
2022-09-23T06:28:08.162Z,36.24
2022-09-23T06:30:35.561Z,36.20
2022-09-23T06:33:02.929Z,36.68
2022-09-23T06:35:31.019Z,36.03
2022-09-23T06:37:58.670Z,36.22
2022-09-23T06:40:26.086Z,36.60
2022-09-23T06:42:59.827Z,36.73
2022-09-23T06:45:28.563Z,35.74
2022-09-23T06:47:56.458Z,35.97
2022-09-23T06:50:25.932Z,35.52
2022-09-23T06:52:54.219Z,35.89
2022-09-23T06:55:22.524Z,35.85
2022-09-23T06:57:50.336Z,34.80
2022-09-23T07:00:19.788Z,35.73
2022-09-23T07:02:47.842Z,35.35
2022-09-23T07:05:15.569Z,35.42
2022-09-23T07:07:43.437Z,34.71
2022-09-23T07:10:11.934Z,35.12
2022-09-23T07:12:39.499Z,36.32
2022-09-23T07:15:07.877Z,34.81
2022-09-23T07:17:36.797Z,34.43
2022-09-23T07:20:05.719Z,34.00
2022-09-23T07:22:33.180Z,35.93
2022-09-23T07:25:00.663Z,34.31
2022-09-23T07:27:28.622Z,34.57
2022-09-23T07:29:56.027Z,34.42
2022-09-23T07:32:24.138Z,34.69
2022-09-23T07:34:52.996Z,34.74
2022-09-23T07:37:20.563Z,34.26
2022-09-23T07:39:47.961Z,34.01
2022-09-23T07:42:15.398Z,33.41
2022-09-23T07:44:43.194Z,34.00
2022-09-23T07:47:11.214Z,33.52
2022-09-23T07:49:38.640Z,34.49
2022-09-23T07:52:07.677Z,33.83
2022-09-23T07:54:35.295Z,34.29
2022-09-23T07:57:03.123Z,33.90
2022-09-23T07:59:31.180Z,33.19
2022-09-23T08:01:58.736Z,33.54
2022-09-23T08:04:28.137Z,33.34
2022-09-23T08:06:57.308Z,34.01
2022-09-23T08:09:28.179Z,33.49
2022-09-23T08:11:55.804Z,33.06
2022-09-23T08:14:23.409Z,33.58
2022-09-23T08:16:51.240Z,33.19
2022-09-23T08:19:19.070Z,37.35
2022-09-23T08:21:47.251Z,32.94
2022-09-23T08:24:16.718Z,32.75
2022-09-23T08:26:46.951Z,32.79
2022-09-23T08:29:15.448Z,33.35
2022-09-23T08:31:43.343Z,32.55
2022-09-23T08:34:11.143Z,31.79
2022-09-23T08:36:39.075Z,31.75
2022-09-23T08:39:06.943Z,31.89
2022-09-23T08:41:43.598Z,31.77
2022-09-23T08:44:16.243Z,31.93
2022-09-23T08:46:49.362Z,33.30
2022-09-23T08:49:26.317Z,32.43
2022-09-23T08:51:55.307Z,32.46
2022-09-23T08:54:22.845Z,32.53
2022-09-23T08:56:51.778Z,31.45
2022-09-23T08:59:26.839Z,31.97
2022-09-23T09:02:00.345Z,31.94
2022-09-23T09:04:39.214Z,31.65
2022-09-23T09:10:07.045Z,31.70
2022-09-23T09:12:40.876Z,31.60
2022-09-23T09:15:13.774Z,31.47
2022-09-23T09:17:48.173Z,32.06
2022-09-23T09:20:34.517Z,31.88
2022-09-23T09:23:12.657Z,31.72
2022-09-23T09:25:46.092Z,30.69
2022-09-23T09:28:22.184Z,30.93
2022-09-23T09:30:56.147Z,31.12
2022-09-23T09:33:28.494Z,31.40
2022-09-23T09:36:08.678Z,31.53
2022-09-23T09:38:36.976Z,31.37
2022-09-23T09:41:14.153Z,31.68
2022-09-23T09:43:44.350Z,31.44
2022-09-23T09:46:27.118Z,30.77
2022-09-23T09:48:58.447Z,31.71
2022-09-23T09:51:27.699Z,30.16
2022-09-23T09:53:55.792Z,30.52
2022-09-23T09:56:30.368Z,30.02
2022-09-23T09:59:02.190Z,30.24
2022-09-23T10:01:32.921Z,30.74
2022-09-23T10:04:03.629Z,29.99
2022-09-23T10:06:32.888Z,30.26
2022-09-23T10:09:14.375Z,29.82
2022-09-23T10:11:42.067Z,29.92
2022-09-23T10:14:15.424Z,30.47
2022-09-23T10:16:45.611Z,29.76
2022-09-23T10:19:18.629Z,30.35
2022-09-23T10:21:51.791Z,30.43
2022-09-23T10:24:23.824Z,29.86
2022-09-23T10:26:57.869Z,29.95
2022-09-23T10:29:30.631Z,30.38
2022-09-23T10:32:23.823Z,30.03
2022-09-23T10:34:54.087Z,29.96
2022-09-23T10:37:36.140Z,29.81
2022-09-23T10:40:14.312Z,29.76
2022-09-23T10:43:01.416Z,29.71
2022-09-23T10:45:33.868Z,29.27
2022-09-23T10:48:12.173Z,29.92
2022-09-23T10:50:44.249Z,29.35
2022-09-23T10:53:20.230Z,29.26
2022-09-23T10:56:01.786Z,29.25
2022-09-23T10:58:49.730Z,30.22
2022-09-23T11:01:28.653Z,29.84
2022-09-23T11:04:18.551Z,29.09
2022-09-23T11:07:05.566Z,29.17
2022-09-23T11:09:44.130Z,30.23
2022-09-23T11:12:28.085Z,30.30
2022-09-23T11:15:16.435Z,29.97
2022-09-23T11:17:59.944Z,30.26
2022-09-23T11:20:48.011Z,30.46
2022-09-23T11:24:02.159Z,29.82
2022-09-23T11:26:40.752Z,29.98
2022-09-23T11:29:29.445Z,29.88
2022-09-23T11:32:10.240Z,30.27
2022-09-23T11:35:01.572Z,29.08
2022-09-23T11:37:35.303Z,30.40
2022-09-23T11:40:12.126Z,29.58
2022-09-23T11:42:46.952Z,29.77
2022-09-23T11:45:18.844Z,30.21
2022-09-23T11:47:51.105Z,29.56
2022-09-23T11:50:23.619Z,30.22
2022-09-23T11:53:00.470Z,30.52
2022-09-23T11:55:31.220Z,30.22
2022-09-23T11:58:06.647Z,30.48
2022-09-23T12:00:48.730Z,30.55
2022-09-23T12:03:38.858Z,29.94
2022-09-23T12:06:15.309Z,30.03
2022-09-23T12:08:44.591Z,30.55
2022-09-23T12:11:24.579Z,30.46
2022-09-23T12:14:01.311Z,29.71
2022-09-23T12:17:04.265Z,30.04
2022-09-23T12:19:46.358Z,30.63
2022-09-23T12:22:28.673Z,30.75
2022-09-23T12:25:07.102Z,30.14
2022-09-23T12:27:38.790Z,30.72
2022-09-23T12:30:14.801Z,30.52
2022-09-23T12:32:42.871Z,30.68
2022-09-23T12:35:22.549Z,30.93
2022-09-23T12:37:50.034Z,30.53
2022-09-23T12:40:22.664Z,30.86
2022-09-23T12:42:50.855Z,29.91
2022-09-23T12:45:37.013Z,29.79
2022-09-23T12:48:24.607Z,30.17
2022-09-23T12:50:57.094Z,30.76
2022-09-23T12:54:06.219Z,30.15
2022-09-23T12:57:00.656Z,31.10
2022-09-23T12:59:31.531Z,30.87
2022-09-23T13:02:23.320Z,30.35
2022-09-23T13:04:57.568Z,30.62
2022-09-23T13:07:28.182Z,31.03
2022-09-23T13:10:03.454Z,30.87
2022-09-23T13:12:35.740Z,30.91
2022-09-23T13:15:13.479Z,31.29
2022-09-23T13:17:40.948Z,31.54
2022-09-23T13:20:34.784Z,31.77
2022-09-23T13:23:21.903Z,31.04
2022-09-23T13:25:51.615Z,32.07
2022-09-23T13:28:32.521Z,32.02
2022-09-23T13:31:04.613Z,31.84
2022-09-23T13:33:40.169Z,32.38
2022-09-23T13:36:12.870Z,31.84
2022-09-23T13:38:40.610Z,32.36
2022-09-23T13:41:13.901Z,32.96
2022-09-23T13:43:45.363Z,32.91
2022-09-23T13:46:17.468Z,33.01
2022-09-23T13:48:47.526Z,32.42
2022-09-23T13:51:22.082Z,33.03
2022-09-23T13:53:53.423Z,33.47
2022-09-23T13:56:21.410Z,32.80
2022-09-23T13:58:50.492Z,33.28
2022-09-23T14:01:29.264Z,32.74
2022-09-23T14:03:56.725Z,33.13
2022-09-23T14:06:25.498Z,33.61
2022-09-23T14:08:53.599Z,33.03
2022-09-23T14:11:29.098Z,33.62
2022-09-23T14:14:00.748Z,33.73
2022-09-23T14:16:50.949Z,33.17
2022-09-23T14:19:21.531Z,33.08
2022-09-23T14:21:50.204Z,34.01
2022-09-23T14:24:20.028Z,33.39
2022-09-23T14:26:50.418Z,33.31
2022-09-23T14:29:21.267Z,33.23
2022-09-23T14:31:54.355Z,33.56
2022-09-23T14:34:44.632Z,33.23
2022-09-23T14:37:21.988Z,33.57
2022-09-23T14:39:54.508Z,33.50
2022-09-23T14:42:24.507Z,34.05
2022-09-23T14:44:53.988Z,34.05
2022-09-23T14:47:21.547Z,34.47
2022-09-23T14:49:50.762Z,34.08
2022-09-23T14:52:18.241Z,34.39
2022-09-23T14:54:46.407Z,34.25
2022-09-23T14:57:26.725Z,34.85
2022-09-23T14:59:59.701Z,35.14
2022-09-23T15:02:35.687Z,34.62
2022-09-23T15:05:30.056Z,35.15
2022-09-23T15:08:00.288Z,35.12
2022-09-23T15:10:30.363Z,35.23
2022-09-23T15:13:05.419Z,35.38
2022-09-23T15:15:34.347Z,34.82
2022-09-23T15:18:07.163Z,35.32
2022-09-23T15:20:35.559Z,35.17
2022-09-23T15:23:03.018Z,35.35
2022-09-23T15:25:33.752Z,35.51
2022-09-23T15:28:04.284Z,35.33
2022-09-23T15:30:35.092Z,35.40
2022-09-23T15:33:02.454Z,35.68
2022-09-23T15:35:30.713Z,34.80
2022-09-23T15:37:59.584Z,35.20
2022-09-23T15:40:29.166Z,35.14
2022-09-23T15:42:57.095Z,35.72
2022-09-23T15:45:31.650Z,35.44
2022-09-23T15:48:04.727Z,35.45
2022-09-23T15:50:34.484Z,35.50
2022-09-23T15:53:01.831Z,35.46
2022-09-23T15:55:29.225Z,35.49
2022-09-23T15:57:56.602Z,34.83
2022-09-23T16:00:24.054Z,34.35
2022-09-23T16:02:52.482Z,34.39
2022-09-23T16:05:26.442Z,34.31
2022-09-23T16:07:54.317Z,34.24
2022-09-23T16:10:22.625Z,34.31
2022-09-23T16:12:52.190Z,33.61
2022-09-23T16:15:21.818Z,34.04
2022-09-23T16:17:49.233Z,33.61
2022-09-23T16:20:16.817Z,33.71
2022-09-23T16:22:52.351Z,33.68
2022-09-23T16:25:20.579Z,34.12
2022-09-23T16:27:48.011Z,34.18
2022-09-23T16:30:15.769Z,33.77
2022-09-23T16:32:43.135Z,33.28
2022-09-23T16:35:10.585Z,34.11
2022-09-23T16:37:37.999Z,33.98
2022-09-23T16:40:08.240Z,33.74
2022-09-23T16:42:35.636Z,33.81
2022-09-23T16:45:03.874Z,34.36
2022-09-23T16:47:31.225Z,33.96
2022-09-23T16:49:58.620Z,33.40
2022-09-23T16:52:26.005Z,33.78
2022-09-23T16:54:53.366Z,33.51
2022-09-23T16:57:22.245Z,33.63
2022-09-23T16:59:49.601Z,34.03
2022-09-23T17:02:17.021Z,34.13
2022-09-23T17:04:44.498Z,34.00
2022-09-23T17:07:11.875Z,33.65
2022-09-23T17:09:39.264Z,33.64
2022-09-23T17:12:14.232Z,34.00
2022-09-23T17:14:43.060Z,33.64
2022-09-23T17:17:10.849Z,33.26
2022-09-23T17:19:38.417Z,33.69
2022-09-23T17:22:05.815Z,33.39
2022-09-23T17:24:33.217Z,33.64
2022-09-23T17:27:00.605Z,33.89
2022-09-23T17:29:27.972Z,33.63
2022-09-23T17:31:56.819Z,33.22
2022-09-23T17:34:24.216Z,34.01
2022-09-23T17:36:51.667Z,34.12
2022-09-23T17:39:19.033Z,33.96
2022-09-23T17:41:46.428Z,33.36
2022-09-23T17:44:13.988Z,33.41
2022-09-23T17:46:41.320Z,33.74
2022-09-23T17:49:10.174Z,33.92
2022-09-23T17:51:37.919Z,33.29
2022-09-23T17:54:05.391Z,33.73
2022-09-23T17:56:32.742Z,33.89
2022-09-23T17:59:01.368Z,33.99
2022-09-23T18:01:29.266Z,33.75
2022-09-23T18:03:58.162Z,33.77
2022-09-23T18:06:28.889Z,33.48
2022-09-23T18:08:56.258Z,33.20
2022-09-23T18:11:25.666Z,33.49
2022-09-23T18:13:55.300Z,33.79
2022-09-23T18:16:24.896Z,33.45
2022-09-23T18:18:52.815Z,33.26
2022-09-23T18:21:20.637Z,33.85
2022-09-23T18:23:50.227Z,33.38
2022-09-23T18:26:19.546Z,33.24
2022-09-23T18:28:47.257Z,33.39
2022-09-23T18:31:15.398Z,33.19
2022-09-23T18:33:42.802Z,33.59
2022-09-23T18:36:10.674Z,33.88
2022-09-23T18:38:38.033Z,33.81
2022-09-23T18:41:06.923Z,33.51
2022-09-23T18:43:40.506Z,33.84
2022-09-23T18:46:13.020Z,33.72
2022-09-23T18:48:41.065Z,33.33
2022-09-23T18:51:09.701Z,33.89
2022-09-23T18:53:37.874Z,32.97
2022-09-23T18:56:08.713Z,33.59
2022-09-23T18:58:36.455Z,33.59
2022-09-23T19:01:06.630Z,32.91
2022-09-23T19:03:34.912Z,32.93
2022-09-23T19:06:04.832Z,33.13
2022-09-23T19:08:32.365Z,32.99
2022-09-23T19:11:01.904Z,33.24
2022-09-23T19:13:30.836Z,33.05
2022-09-23T19:16:01.798Z,33.19
2022-09-23T19:18:29.249Z,32.75
2022-09-23T19:20:57.252Z,33.07
2022-09-23T19:23:24.603Z,33.68
2022-09-23T19:25:51.945Z,32.98
2022-09-23T19:28:19.303Z,33.10
2022-09-23T19:30:48.185Z,33.07
2022-09-23T19:33:15.519Z,33.45
2022-09-23T19:35:46.861Z,32.82
2022-09-23T19:38:15.734Z,33.32
2022-09-23T19:40:46.504Z,33.36
2022-09-23T19:43:16.482Z,32.85
2022-09-23T19:45:43.970Z,33.52
2022-09-23T19:48:12.808Z,33.29
2022-09-23T19:50:40.604Z,33.37
2022-09-23T19:53:08.166Z,32.92
2022-09-23T19:55:36.052Z,33.13
2022-09-23T19:58:04.080Z,33.14
2022-09-23T20:00:31.929Z,33.61
2022-09-23T20:02:59.758Z,33.13
2022-09-23T20:05:28.741Z,32.96
2022-09-23T20:07:56.656Z,32.45
2022-09-23T20:10:24.116Z,32.75
2022-09-23T20:12:51.898Z,33.24
2022-09-23T20:15:19.451Z,32.57
2022-09-23T20:17:46.871Z,33.23
2022-09-23T20:20:14.373Z,32.92
2022-09-23T20:22:43.276Z,33.06
2022-09-23T20:25:10.904Z,33.13
2022-09-23T20:27:38.334Z,32.34
2022-09-23T20:30:07.318Z,33.09
2022-09-23T20:32:34.787Z,32.78
2022-09-23T20:35:02.295Z,33.24
2022-09-23T20:37:29.790Z,32.53
2022-09-23T20:39:58.607Z,33.17
2022-09-23T20:42:26.119Z,32.45
2022-09-23T20:44:54.035Z,32.32
2022-09-23T20:47:24.008Z,32.37
2022-09-23T20:49:51.425Z,32.33
2022-09-23T20:52:18.783Z,33.53
2022-09-23T20:54:46.117Z,32.94
2022-09-23T20:57:14.916Z,33.15
2022-09-23T20:59:42.764Z,32.09
2022-09-23T21:02:11.094Z,32.85
2022-09-23T21:04:39.114Z,32.04
2022-09-23T21:07:06.510Z,32.54
2022-09-23T21:09:33.855Z,32.90
2022-09-23T21:12:01.556Z,32.35
2022-09-23T21:14:30.363Z,32.76
2022-09-23T21:16:57.692Z,32.77
2022-09-23T21:19:25.083Z,32.43
2022-09-23T21:21:52.422Z,31.97
2022-09-23T21:25:08.469Z,32.65
2022-09-23T21:27:07.109Z,33.46
2022-09-23T21:29:35.875Z,33.67
2022-09-23T21:32:03.862Z,33.45
2022-09-23T21:34:31.704Z,33.18
2022-09-23T21:36:59.056Z,32.29
2022-09-23T21:39:26.396Z,32.46
2022-09-23T21:41:53.747Z,32.70
2022-09-23T21:44:21.152Z,32.50
2022-09-23T21:46:49.955Z,33.03
2022-09-23T21:49:17.424Z,33.33
2022-09-23T21:51:44.742Z,32.92
2022-09-23T21:54:13.671Z,33.23
2022-09-23T21:56:41.597Z,32.61
2022-09-23T21:59:09.006Z,33.47
2022-09-23T22:01:38.741Z,32.56
2022-09-23T22:04:08.451Z,33.35
2022-09-23T22:06:37.858Z,33.26
2022-09-23T22:09:07.287Z,32.75
2022-09-23T22:11:35.480Z,33.47
2022-09-23T22:14:05.879Z,33.19
2022-09-23T22:16:34.280Z,32.74
2022-09-23T22:19:02.047Z,33.06
2022-09-23T22:21:31.447Z,33.34
2022-09-23T22:23:59.773Z,32.39
2022-09-23T22:26:27.926Z,33.11
2022-09-23T22:28:55.263Z,33.22
2022-09-23T22:31:22.803Z,32.63
2022-09-23T22:33:50.400Z,32.40
2022-09-23T22:36:18.198Z,32.50
2022-09-23T22:38:46.992Z,33.00
2022-09-23T22:41:14.335Z,32.45
2022-09-23T22:43:41.681Z,32.38
2022-09-23T22:46:09.038Z,33.61
2022-09-23T22:48:36.399Z,33.79
2022-09-23T22:51:04.529Z,33.34
2022-09-23T22:53:31.897Z,33.48
2022-09-23T22:56:01.593Z,33.61
2022-09-23T22:58:32.601Z,33.50
2022-09-23T23:01:00.316Z,33.24
2022-09-23T23:03:27.756Z,32.83
2022-09-23T23:05:55.144Z,33.26
2022-09-23T23:08:22.517Z,32.80
2022-09-23T23:10:50.675Z,33.24
2022-09-23T23:13:19.455Z,32.40
2022-09-23T23:15:47.696Z,33.02
2022-09-23T23:18:15.583Z,32.82
2022-09-23T23:20:42.909Z,33.39
2022-09-23T23:23:10.249Z,32.60
2022-09-23T23:25:37.589Z,32.50
2022-09-23T23:28:04.946Z,33.20
2022-09-23T23:30:34.698Z,33.06
2022-09-23T23:33:01.711Z,33.47
2022-09-23T23:35:29.245Z,33.50
2022-09-23T23:37:56.591Z,33.52
2022-09-23T23:40:24.054Z,33.23
2022-09-23T23:42:51.421Z,33.36
2022-09-23T23:45:18.835Z,32.78
2022-09-23T23:47:47.704Z,33.16
2022-09-23T23:50:15.243Z,33.50
2022-09-23T23:52:42.593Z,33.62
2022-09-23T23:55:10.068Z,32.92
2022-09-23T23:57:37.447Z,33.99
